Terminal Aerodrome Forecast
Issued by NWS

Home | Current Version | Previous Version | Text Only | Print | Product List | Glossary On
Versions: 1 2 3 4 5 6 7 8 9 10 11 12 13 14 15 16 17 18 19 20 21
000
FTUS43 KSGF 281300 AAA
TAFJLN
TAF AMD
KJLN 281342Z 2814/0112 12006KT 4SM -SN OVC040
     FM281500 14007KT 1SM -SN OVC015
      TEMPO 2817/2821 1/2SM SN OVC005
     FM282200 14007KT 1SM -SN BR OVC003=

USA.gov is the U.S. government's official web portal to all federal, state and local government web resources and services.